首页
METAR-TAF:

METAR-TAF

机场 :

Adrian, 密歇根州, 美国

纬度: 41-52-04N, 经度: 084-04-46W, 海拔: 244米

当前天气观测

该预报发布于41分钟前的23:53 UTC
风速12节,风向西转西南,有时为17节阵风
温度 27°C
湿度 48%
气压 1013 hPa
能見度: 16.1公里
天空无云

METAR: KADG 252353Z AUTO 25012G17KT 10SM CLR 27/15 A2991 RMK AO2 SLP125 T02670150 10283 20267 55001 TSNO

时间: 20:34 (00:34 UTC)


TAF: 丢失

超过4000个机场的气象观测和天气预报(METAR&TAF报告)。

可查询的气象台以黄色和红色小点在地图上表示。

将鼠标移到小点上方,可查看气象台名称。

然后点击查看天气观测和预报。

如需切换地图:点击带黑十字的绿色按钮放大地图;点击带横线的绿色按钮缩小地图;或者点击绿色箭头查看邻近地区的地图。


METAR-TAF: